createdAt,value
2019-02-28T00:02:10.680Z,38.40
2019-02-28T00:04:37.084Z,37.80
2019-02-28T00:07:03.418Z,43.28
2019-02-28T00:09:29.675Z,43.63
2019-02-28T00:11:55.910Z,46.50
2019-02-28T00:14:22.162Z,35.08
2019-02-28T00:16:48.451Z,39.05
2019-02-28T00:19:14.810Z,33.55
2019-02-28T00:21:41.326Z,38.45
2019-02-28T00:24:07.656Z,37.67
2019-02-28T00:26:33.968Z,51.10
2019-02-28T00:29:01.138Z,50.88
2019-02-28T00:31:27.689Z,54.83
2019-02-28T00:33:53.928Z,57.25
2019-02-28T00:36:20.211Z,58.10
2019-02-28T00:38:46.489Z,49.95
2019-02-28T00:41:12.735Z,56.83
2019-02-28T00:43:39.001Z,59.15
2019-02-28T00:46:07.255Z,62.38
2019-02-28T00:48:33.370Z,62.88
2019-02-28T00:50:59.859Z,55.35
2019-02-28T00:53:26.145Z,64.60
2019-02-28T00:55:52.413Z,61.05
2019-02-28T00:58:18.696Z,60.67
2019-02-28T01:00:45.087Z,56.98
2019-02-28T01:03:11.322Z,61.60
2019-02-28T01:05:37.599Z,60.40
2019-02-28T01:08:03.851Z,58.45
2019-02-28T01:10:38.828Z,53.00
2019-02-28T01:13:01.677Z,57.55
2019-02-28T01:15:27.995Z,58.50
2019-02-28T01:17:57.213Z,52.62
2019-02-28T01:20:22.348Z,54.75
2019-02-28T01:22:48.859Z,63.90
2019-02-28T01:25:17.712Z,58.20
2019-02-28T01:27:43.945Z,62.67
2019-02-28T01:30:12.710Z,66.60
2019-02-28T01:32:38.953Z,60.25
2019-02-28T01:35:06.968Z,64.77
2019-02-28T01:37:33.370Z,59.85
2019-02-28T01:40:01.130Z,67.37
2019-02-28T01:42:27.772Z,62.98
2019-02-28T01:44:54.027Z,61.73
2019-02-28T01:47:21.053Z,61.15
2019-02-28T01:49:47.279Z,64.77
2019-02-28T01:52:13.610Z,60.95
2019-02-28T01:54:40.153Z,60.80
2019-02-28T01:57:08.969Z,65.95
2019-02-28T01:59:34.445Z,66.60
2019-02-28T02:02:05.567Z,60.45
2019-02-28T02:04:28.798Z,64.25
2019-02-28T02:06:59.628Z,67.30
2019-02-28T02:09:23.794Z,66.70
2019-02-28T02:11:50.402Z,71.65
2019-02-28T02:14:16.692Z,67.60
2019-02-28T02:16:42.956Z,65.83
2019-02-28T02:19:09.292Z,68.20
2019-02-28T02:21:35.661Z,68.17
2019-02-28T02:24:01.873Z,68.92
2019-02-28T02:26:28.178Z,73.78
2019-02-28T02:28:54.468Z,70.65
2019-02-28T02:31:27.191Z,74.45
2019-02-28T02:33:52.458Z,67.42
2019-02-28T02:36:17.779Z,69.30
2019-02-28T02:38:44.631Z,72.92
2019-02-28T02:41:10.883Z,75.95
2019-02-28T02:43:37.225Z,70.20
2019-02-28T02:46:05.799Z,76.28
2019-02-28T02:48:32.056Z,75.87
2019-02-28T02:50:58.299Z,74.70
2019-02-28T02:53:24.808Z,78.25
2019-02-28T02:55:51.136Z,72.80
2019-02-28T02:58:17.371Z,69.45
2019-02-28T03:00:51.295Z,77.32
2019-02-28T03:03:14.371Z,71.55
2019-02-28T03:05:40.620Z,77.42
2019-02-28T03:08:06.894Z,73.67
2019-02-28T03:10:35.466Z,76.40
2019-02-28T03:13:04.803Z,71.62
2019-02-28T03:15:29.797Z,71.25
2019-02-28T03:17:56.380Z,81.15
2019-02-28T03:20:24.530Z,80.35
2019-02-28T03:22:50.794Z,81.55
2019-02-28T03:25:17.080Z,82.10
2019-02-28T03:27:43.471Z,80.28
2019-02-28T03:30:27.951Z,84.30
2019-02-28T03:32:45.266Z,82.90
2019-02-28T03:35:11.524Z,85.03
2019-02-28T03:37:37.781Z,81.20
2019-02-28T03:40:07.066Z,77.10
2019-02-28T03:42:53.720Z,82.22
2019-02-28T03:45:19.988Z,84.72
2019-02-28T03:47:46.279Z,87.25
2019-02-28T03:50:12.512Z,84.70
2019-02-28T03:52:43.893Z,84.13
2019-02-28T03:55:08.779Z,83.30
2019-02-28T03:57:35.151Z,83.22
2019-02-28T04:00:01.407Z,79.97
2019-02-28T04:02:27.686Z,78.72
2019-02-28T04:04:53.945Z,91.25
2019-02-28T04:07:20.567Z,86.35
2019-02-28T04:09:46.830Z,87.60
2019-02-28T04:12:13.217Z,84.52
2019-02-28T04:14:39.481Z,88.05
2019-02-28T04:17:05.741Z,86.82
2019-02-28T04:19:32.066Z,84.35
2019-02-28T04:21:58.295Z,90.10
2019-02-28T04:24:24.669Z,91.08
2019-02-28T04:26:50.962Z,92.82
2019-02-28T04:29:17.254Z,84.65
2019-02-28T04:31:43.616Z,95.10
2019-02-28T04:34:13.297Z,89.67
2019-02-28T04:36:37.952Z,91.02
2019-02-28T04:39:05.990Z,84.72
2019-02-28T04:41:32.911Z,89.13
2019-02-28T04:44:00.101Z,90.32
2019-02-28T04:46:28.356Z,88.30
2019-02-28T04:48:54.430Z,87.27
2019-02-28T04:51:20.710Z,86.15
2019-02-28T04:53:47.338Z,86.45
2019-02-28T04:56:13.922Z,85.32
2019-02-28T04:58:40.243Z,87.67
2019-02-28T05:01:09.239Z,93.25
2019-02-28T05:03:34.530Z,91.47
2019-02-28T05:06:01.139Z,97.95
2019-02-28T05:08:27.411Z,99.92
2019-02-28T05:10:55.947Z,100.55
2019-02-28T05:13:22.011Z,92.37
2019-02-28T05:15:48.251Z,94.83
2019-02-28T05:18:14.602Z,100.58
2019-02-28T05:20:45.181Z,97.45
2019-02-28T05:23:09.391Z,91.05
2019-02-28T05:25:35.629Z,92.92
2019-02-28T05:28:01.961Z,94.50
2019-02-28T05:30:28.210Z,103.25
2019-02-28T05:32:54.504Z,96.35
2019-02-28T05:35:25.534Z,107.45
2019-02-28T05:37:48.903Z,98.17
2019-02-28T05:40:15.164Z,91.42
2019-02-28T05:42:41.408Z,109.63
2019-02-28T05:45:11.370Z,116.00
2019-02-28T05:47:46.100Z,101.67
2019-02-28T05:50:15.524Z,105.72
2019-02-28T05:52:40.629Z,108.52
2019-02-28T05:55:07.971Z,119.70
2019-02-28T05:57:34.227Z,108.95
2019-02-28T06:00:03.027Z,134.30
2019-02-28T06:02:29.502Z,123.45
2019-02-28T06:04:55.778Z,128.05
2019-02-28T06:07:22.155Z,130.25
2019-02-28T06:09:51.399Z,129.42
2019-02-28T06:12:17.923Z,122.42
2019-02-28T06:14:44.159Z,124.42
2019-02-28T06:17:10.384Z,115.57
2019-02-28T06:19:40.276Z,110.25
2019-02-28T06:22:08.065Z,125.20
2019-02-28T06:24:34.478Z,130.12
2019-02-28T06:27:03.727Z,134.35
2019-02-28T06:29:29.203Z,138.95
2019-02-28T06:31:55.533Z,143.62
2019-02-28T06:34:23.314Z,147.20
2019-02-28T06:36:50.304Z,140.03
2019-02-28T06:39:18.508Z,137.52
2019-02-28T06:41:46.756Z,150.12
2019-02-28T06:44:13.039Z,138.03
2019-02-28T06:46:39.999Z,147.93
2019-02-28T06:49:07.261Z,161.37
2019-02-28T06:51:33.537Z,152.10
2019-02-28T06:53:59.990Z,139.97
2019-02-28T06:56:26.234Z,155.00
2019-02-28T06:58:52.537Z,153.95
2019-02-28T07:01:19.277Z,147.85
2019-02-28T07:03:53.229Z,144.65
2019-02-28T07:06:15.131Z,151.07
2019-02-28T07:08:41.545Z,144.37
2019-02-28T07:11:07.827Z,155.18
2019-02-28T07:13:38.766Z,144.80
2019-02-28T07:16:04.328Z,157.95
2019-02-28T07:18:30.359Z,181.90
2019-02-28T07:20:56.610Z,164.82
2019-02-28T07:23:22.872Z,165.15
2019-02-28T07:25:49.136Z,192.22
2019-02-28T07:28:15.447Z,173.75
2019-02-28T07:30:50.392Z,180.20
2019-02-28T07:33:17.701Z,197.62
2019-02-28T07:35:43.959Z,199.60
2019-02-28T07:38:10.297Z,170.57
2019-02-28T07:40:36.844Z,172.00
2019-02-28T07:43:03.227Z,168.02
2019-02-28T07:45:29.620Z,176.30
2019-02-28T07:47:57.614Z,187.85
2019-02-28T07:50:23.927Z,190.88
2019-02-28T07:52:50.279Z,198.05
2019-02-28T07:55:18.134Z,184.07
2019-02-28T07:57:44.440Z,174.42
2019-02-28T08:00:20.985Z,181.60
2019-02-28T08:02:47.297Z,154.10
2019-02-28T08:05:13.623Z,162.85
2019-02-28T08:07:39.912Z,197.13
2019-02-28T08:10:12.758Z,175.78
2019-02-28T08:12:40.698Z,192.47
2019-02-28T08:15:10.790Z,192.20
2019-02-28T08:17:37.120Z,165.88
2019-02-28T08:20:08.349Z,149.95
2019-02-28T08:22:34.607Z,157.12
2019-02-28T08:25:00.890Z,168.22
2019-02-28T08:27:27.155Z,175.57
2019-02-28T08:29:53.408Z,184.57
2019-02-28T08:32:19.837Z,174.30
2019-02-28T08:34:46.897Z,153.23
2019-02-28T08:37:13.343Z,165.32
2019-02-28T08:39:41.180Z,174.97
2019-02-28T08:42:07.815Z,179.68
2019-02-28T08:44:34.122Z,161.73
2019-02-28T08:47:00.418Z,152.87
2019-02-28T08:49:26.999Z,150.70
2019-02-28T08:51:53.316Z,133.30
2019-02-28T08:54:26.046Z,132.75
2019-02-28T08:56:49.574Z,159.72
2019-02-28T08:59:20.441Z,163.07
2019-02-28T09:01:44.299Z,150.40
2019-02-28T09:04:10.879Z,144.68
2019-02-28T09:06:37.893Z,136.40
2019-02-28T09:09:06.025Z,120.62
2019-02-28T09:11:32.428Z,141.73
2019-02-28T09:13:58.649Z,138.15
2019-02-28T09:16:25.947Z,133.95
2019-02-28T09:18:52.247Z,110.60
2019-02-28T09:21:19.111Z,146.25
2019-02-28T09:23:45.574Z,107.87
2019-02-28T09:26:13.764Z,95.75
2019-02-28T09:28:40.014Z,85.00
2019-02-28T09:31:06.260Z,73.30
2019-02-28T09:33:32.716Z,81.40
2019-02-28T09:35:59.069Z,77.78
2019-02-28T09:38:25.578Z,83.90
2019-02-28T09:40:51.826Z,75.25
2019-02-28T09:43:18.173Z,63.75
2019-02-28T09:45:44.466Z,81.10
2019-02-28T09:48:10.834Z,74.20
2019-02-28T09:50:37.211Z,75.85
2019-02-28T09:53:03.468Z,63.85
2019-02-28T09:55:34.070Z,65.55
2019-02-28T09:57:57.947Z,72.50
2019-02-28T10:00:27.426Z,62.20
2019-02-28T10:02:53.399Z,65.85
2019-02-28T10:05:19.699Z,59.00
2019-02-28T10:07:48.565Z,65.55
2019-02-28T10:10:25.535Z,70.92
2019-02-28T10:12:51.788Z,62.30
2019-02-28T10:15:23.030Z,64.80
2019-02-28T10:17:49.543Z,61.30
2019-02-28T10:20:28.563Z,56.92
2019-02-28T10:22:54.999Z,58.80
2019-02-28T10:25:23.162Z,49.40
2019-02-28T10:27:49.493Z,54.95
2019-02-28T10:30:17.550Z,46.75
2019-02-28T10:32:44.056Z,59.15
2019-02-28T10:35:10.383Z,63.15
2019-02-28T10:37:36.732Z,54.63
2019-02-28T10:40:06.719Z,64.10
2019-02-28T10:42:33.257Z,62.78
2019-02-28T10:44:59.506Z,59.00
2019-02-28T10:47:29.394Z,77.32
2019-02-28T10:49:55.378Z,68.20
2019-02-28T10:52:23.470Z,68.52
2019-02-28T10:54:50.479Z,65.37
2019-02-28T10:57:16.972Z,55.90
2019-02-28T10:59:43.291Z,53.25
2019-02-28T11:02:09.830Z,57.65
2019-02-28T11:04:42.687Z,55.43
2019-02-28T11:07:09.579Z,59.63
2019-02-28T11:09:37.800Z,52.15
2019-02-28T11:12:04.187Z,56.13
2019-02-28T11:14:30.429Z,53.15
2019-02-28T11:16:59.394Z,63.50
2019-02-28T11:19:24.886Z,57.98
2019-02-28T11:21:51.161Z,60.05
2019-02-28T11:24:20.526Z,47.20
2019-02-28T11:26:47.287Z,50.50
2019-02-28T11:29:13.571Z,59.45
2019-02-28T11:31:39.948Z,60.48
2019-02-28T11:34:06.372Z,51.92
2019-02-28T11:36:34.080Z,53.65
2019-02-28T11:39:00.807Z,55.58
2019-02-28T11:41:27.114Z,51.05
2019-02-28T11:43:53.422Z,47.55
2019-02-28T11:46:19.634Z,50.52
2019-02-28T11:48:45.900Z,51.05
2019-02-28T11:51:14.662Z,53.38
2019-02-28T11:53:40.620Z,43.60
2019-02-28T11:56:10.701Z,50.95
2019-02-28T11:58:36.973Z,48.98
2019-02-28T12:01:03.457Z,46.55
2019-02-28T12:03:31.841Z,49.40
2019-02-28T12:05:57.850Z,54.45
2019-02-28T12:08:24.227Z,56.58
2019-02-28T12:10:50.590Z,56.40
2019-02-28T12:13:19.690Z,59.95
2019-02-28T12:15:47.295Z,49.25
2019-02-28T12:18:13.658Z,58.55
2019-02-28T12:20:39.961Z,51.13
2019-02-28T12:23:06.325Z,44.98
2019-02-28T12:25:32.637Z,45.17
2019-02-28T12:27:59.407Z,50.98
2019-02-28T12:30:28.776Z,52.25
2019-02-28T12:32:55.100Z,51.15
2019-02-28T12:35:27.066Z,49.80
2019-02-28T12:37:53.857Z,49.20
2019-02-28T12:40:29.095Z,40.48
2019-02-28T12:42:55.402Z,46.00
2019-02-28T12:45:27.725Z,51.68
2019-02-28T12:47:54.185Z,50.00
2019-02-28T12:50:20.448Z,48.30
2019-02-28T12:52:49.923Z,46.63
2019-02-28T12:55:16.718Z,49.25
2019-02-28T12:57:42.993Z,55.52
2019-02-28T13:00:19.837Z,50.40
2019-02-28T13:02:47.328Z,48.30
2019-02-28T13:05:15.792Z,47.05
2019-02-28T13:07:41.843Z,44.88
2019-02-28T13:10:16.564Z,50.33
2019-02-28T13:12:44.118Z,40.58
2019-02-28T13:15:13.950Z,47.00
2019-02-28T13:17:42.150Z,47.55
2019-02-28T13:20:14.091Z,51.18
2019-02-28T13:22:40.477Z,46.83
2019-02-28T13:25:11.613Z,45.70
2019-02-28T13:27:41.456Z,48.25
2019-02-28T13:30:20.684Z,44.33
2019-02-28T13:32:47.038Z,46.70
2019-02-28T13:35:25.421Z,46.33
2019-02-28T13:37:51.797Z,43.60
2019-02-28T13:40:18.057Z,47.58
2019-02-28T13:42:57.135Z,49.73
2019-02-28T13:45:24.337Z,49.08
2019-02-28T13:47:52.664Z,53.15
2019-02-28T13:50:29.460Z,46.63
2019-02-28T13:52:55.779Z,52.20
2019-02-28T13:55:22.017Z,47.65
2019-02-28T13:57:48.282Z,47.95
2019-02-28T14:00:19.512Z,52.75
2019-02-28T14:02:47.737Z,46.08
2019-02-28T14:05:13.972Z,48.90
2019-02-28T14:07:40.216Z,46.60
2019-02-28T14:10:11.403Z,47.05
2019-02-28T14:12:37.802Z,43.20
2019-02-28T14:15:07.838Z,42.90
2019-02-28T14:17:35.504Z,42.27
2019-02-28T14:20:04.275Z,45.75
2019-02-28T14:22:30.691Z,41.98
2019-02-28T14:24:57.064Z,42.20
2019-02-28T14:27:25.303Z,43.60
2019-02-28T14:29:51.789Z,43.17
2019-02-28T14:32:18.044Z,35.83
2019-02-28T14:34:44.293Z,38.98
2019-02-28T14:37:10.630Z,37.75
2019-02-28T14:39:39.811Z,26.60
2019-02-28T14:42:06.695Z,35.15
2019-02-28T14:44:33.081Z,31.23
2019-02-28T14:46:59.333Z,29.63
2019-02-28T14:49:28.849Z,29.57
2019-02-28T14:51:57.213Z,32.58
2019-02-28T14:54:24.714Z,41.83
2019-02-28T14:56:51.624Z,38.42
2019-02-28T14:59:17.886Z,31.23
2019-02-28T15:01:44.164Z,42.23
2019-02-28T15:04:10.412Z,27.75
2019-02-28T15:06:36.989Z,29.35
2019-02-28T15:09:06.058Z,27.20
2019-02-28T15:11:32.308Z,35.63
2019-02-28T15:13:59.937Z,38.67
2019-02-28T15:16:26.597Z,39.55
2019-02-28T15:18:54.451Z,39.98
2019-02-28T15:21:20.987Z,33.18
2019-02-28T15:23:47.238Z,35.45
2019-02-28T15:26:13.517Z,36.68
2019-02-28T15:28:39.906Z,44.15
2019-02-28T15:31:08.596Z,41.53
2019-02-28T15:33:34.276Z,43.08
2019-02-28T15:36:00.546Z,37.93
2019-02-28T15:38:26.896Z,38.35
2019-02-28T15:40:55.768Z,44.15
2019-02-28T15:43:21.253Z,41.45
2019-02-28T15:45:47.569Z,41.20
2019-02-28T15:48:13.865Z,34.03
2019-02-28T15:50:40.113Z,43.17
2019-02-28T15:53:11.306Z,41.60
2019-02-28T15:55:36.610Z,40.25
2019-02-28T15:58:05.926Z,42.62
2019-02-28T16:00:33.687Z,39.05
2019-02-28T16:02:59.952Z,35.73
2019-02-28T16:05:26.837Z,38.67
2019-02-28T16:08:13.035Z,38.67
2019-02-28T16:10:39.351Z,43.68
2019-02-28T16:13:07.457Z,35.83
2019-02-28T16:15:34.167Z,41.58
2019-02-28T16:18:00.675Z,42.45
2019-02-28T16:20:28.618Z,36.80
2019-02-28T16:22:55.133Z,44.63
2019-02-28T16:25:27.284Z,38.13
2019-02-28T16:27:53.624Z,40.05
2019-02-28T16:30:19.853Z,43.60
2019-02-28T16:32:49.131Z,41.92
2019-02-28T16:35:15.311Z,47.75
2019-02-28T16:37:41.816Z,45.40
2019-02-28T16:40:11.945Z,40.73
2019-02-28T16:42:40.172Z,43.80
2019-02-28T16:45:14.397Z,44.08
2019-02-28T16:47:40.854Z,42.20
2019-02-28T16:50:09.469Z,43.65
2019-02-28T16:52:37.338Z,39.03
2019-02-28T16:55:06.720Z,37.95
2019-02-28T16:57:33.039Z,41.88
2019-02-28T16:59:59.504Z,43.08
2019-02-28T17:02:26.382Z,39.85
2019-02-28T17:04:52.978Z,39.45
2019-02-28T17:07:19.339Z,40.50
2019-02-28T17:09:45.580Z,36.63
2019-02-28T17:12:27.238Z,38.38
2019-02-28T17:14:54.039Z,39.05
2019-02-28T17:17:22.222Z,39.85
2019-02-28T17:19:48.593Z,38.65
2019-02-28T17:22:14.872Z,45.28
2019-02-28T17:24:45.749Z,36.98
2019-02-28T17:27:11.219Z,34.67
2019-02-28T17:29:45.478Z,42.08
2019-02-28T17:32:11.950Z,43.17
2019-02-28T17:34:38.345Z,44.83
2019-02-28T17:37:04.589Z,37.33
2019-02-28T17:39:30.886Z,38.80
2019-02-28T17:41:57.135Z,34.67
2019-02-28T17:44:27.853Z,35.70
2019-02-28T17:47:09.111Z,37.13
2019-02-28T17:49:42.749Z,38.35
2019-02-28T17:52:12.946Z,37.42
2019-02-28T17:54:58.148Z,30.15
2019-02-28T17:57:31.289Z,36.42
2019-02-28T18:00:07.052Z,36.77
2019-02-28T18:02:43.018Z,35.80
2019-02-28T18:05:30.040Z,33.65
2019-02-28T18:08:03.066Z,30.32
2019-02-28T18:11:09.630Z,28.07
2019-02-28T18:14:14.971Z,35.05
2019-02-28T18:17:03.606Z,47.35
2019-02-28T18:19:39.546Z,37.00
2019-02-28T18:22:12.934Z,34.83
2019-02-28T18:25:18.491Z,37.13
2019-02-28T18:27:54.057Z,33.53
2019-02-28T18:30:27.604Z,36.98
2019-02-28T18:32:53.977Z,38.70
2019-02-28T18:35:20.690Z,37.80
2019-02-28T18:37:48.897Z,41.40
2019-02-28T18:40:15.150Z,34.00
2019-02-28T18:42:41.467Z,35.08
2019-02-28T18:45:09.822Z,35.03
2019-02-28T18:47:39.732Z,37.95
2019-02-28T18:50:07.510Z,31.12
2019-02-28T18:52:34.491Z,31.17
2019-02-28T18:55:06.100Z,27.77
2019-02-28T18:57:28.989Z,29.72
2019-02-28T18:59:55.218Z,34.10
2019-02-28T19:02:21.698Z,43.40
2019-02-28T19:04:48.094Z,41.20
2019-02-28T19:07:14.349Z,33.50
2019-02-28T19:09:40.638Z,38.15
2019-02-28T19:12:07.026Z,38.78
2019-02-28T19:14:33.292Z,35.17
2019-02-28T19:16:59.620Z,42.83
2019-02-28T19:19:26.122Z,46.88
2019-02-28T19:21:52.379Z,39.90
2019-02-28T19:24:21.095Z,39.98
2019-02-28T19:26:47.580Z,41.40
2019-02-28T19:29:13.834Z,38.55
2019-02-28T19:31:40.152Z,38.30
2019-02-28T19:34:06.568Z,37.13
2019-02-28T19:36:33.064Z,35.40
2019-02-28T19:38:59.517Z,36.00
2019-02-28T19:41:28.146Z,31.00
2019-02-28T19:43:54.457Z,34.85
2019-02-28T19:46:20.786Z,35.80
2019-02-28T19:48:47.148Z,32.58
2019-02-28T19:51:13.431Z,36.25
2019-02-28T19:53:41.506Z,38.50
2019-02-28T19:56:07.722Z,41.35
2019-02-28T19:58:34.182Z,39.92
2019-02-28T20:01:00.726Z,38.80
2019-02-28T20:03:26.972Z,37.88
2019-02-28T20:05:53.456Z,32.48
2019-02-28T20:08:19.742Z,37.30
2019-02-28T20:10:47.180Z,38.85
2019-02-28T20:13:18.520Z,37.95
2019-02-28T20:15:44.898Z,39.48
2019-02-28T20:18:11.174Z,34.65
2019-02-28T20:20:37.632Z,33.18
2019-02-28T20:23:03.883Z,37.08
2019-02-28T20:25:30.316Z,38.48
2019-02-28T20:27:56.670Z,34.43
2019-02-28T20:30:24.760Z,28.98
2019-02-28T20:32:51.526Z,35.10
2019-02-28T20:35:26.128Z,38.20
2019-02-28T20:37:46.080Z,32.98
2019-02-28T20:40:18.329Z,37.10
2019-02-28T20:42:44.632Z,32.33
2019-02-28T20:45:11.154Z,43.00
2019-02-28T20:47:37.642Z,38.75
2019-02-28T20:50:07.790Z,38.25
2019-02-28T20:52:34.108Z,35.98
2019-02-28T20:55:00.674Z,42.98
2019-02-28T20:57:26.948Z,36.68
2019-02-28T20:59:53.299Z,37.28
2019-02-28T21:02:19.582Z,45.78
2019-02-28T21:04:45.912Z,41.05
2019-02-28T21:07:12.241Z,35.75
2019-02-28T21:09:44.911Z,35.35
2019-02-28T21:12:07.928Z,36.95
2019-02-28T21:14:34.152Z,37.98
2019-02-28T21:17:01.039Z,36.25
2019-02-28T21:19:27.571Z,40.05
2019-02-28T21:21:53.938Z,38.55
2019-02-28T21:24:20.461Z,36.45
2019-02-28T21:26:46.745Z,36.77
2019-02-28T21:29:12.965Z,36.13
2019-02-28T21:31:39.271Z,36.68
2019-02-28T21:34:05.538Z,30.20
2019-02-28T21:36:31.981Z,29.90
2019-02-28T21:38:58.575Z,38.30
2019-02-28T21:41:24.841Z,34.85
2019-02-28T21:43:51.262Z,35.85
2019-02-28T21:46:17.572Z,32.83
2019-02-28T21:48:44.193Z,31.23
2019-02-28T21:51:10.804Z,31.42
2019-02-28T21:53:37.216Z,38.55
2019-02-28T21:56:03.483Z,34.80
2019-02-28T21:58:31.240Z,30.23
2019-02-28T22:00:57.882Z,38.65
2019-02-28T22:03:24.169Z,35.95
2019-02-28T22:05:50.604Z,34.33
2019-02-28T22:08:17.132Z,40.00
2019-02-28T22:10:43.415Z,34.05
2019-02-28T22:13:09.818Z,36.08
2019-02-28T22:15:38.051Z,34.48
2019-02-28T22:18:04.810Z,35.43
2019-02-28T22:20:31.217Z,28.62
2019-02-28T22:22:57.806Z,29.27
2019-02-28T22:25:24.095Z,33.65
2019-02-28T22:27:50.527Z,26.48
2019-02-28T22:30:43.071Z,29.55
2019-02-28T22:33:29.403Z,28.65
2019-02-28T22:36:03.816Z,29.05
2019-02-28T22:38:30.309Z,30.05
2019-02-28T22:40:56.544Z,33.88
2019-02-28T22:43:22.900Z,29.15
2019-02-28T22:45:49.161Z,34.75
2019-02-28T22:48:15.439Z,32.83
2019-02-28T22:50:41.736Z,34.35
2019-02-28T22:53:07.975Z,33.67
2019-02-28T22:55:34.230Z,37.50
2019-02-28T22:58:04.309Z,30.48
2019-02-28T23:00:51.478Z,30.50
2019-02-28T23:03:19.741Z,29.55
2019-02-28T23:05:48.143Z,32.05
2019-02-28T23:08:14.384Z,28.87
2019-02-28T23:10:40.759Z,28.27
2019-02-28T23:13:09.149Z,31.50
2019-02-28T23:15:37.443Z,33.28
2019-02-28T23:18:03.485Z,28.40
2019-02-28T23:20:29.694Z,26.50
2019-02-28T23:22:55.978Z,37.03
2019-02-28T23:25:22.231Z,31.23
2019-02-28T23:27:48.468Z,32.48
2019-02-28T23:30:21.433Z,42.05
2019-02-28T23:32:51.510Z,35.43
2019-02-28T23:35:21.077Z,39.98
2019-02-28T23:37:47.360Z,39.38
2019-02-28T23:40:13.609Z,38.38
2019-02-28T23:42:39.937Z,39.03
2019-02-28T23:45:06.853Z,33.38
2019-02-28T23:47:35.005Z,34.38
2019-02-28T23:50:01.644Z,37.45
2019-02-28T23:52:27.887Z,40.17
2019-02-28T23:54:54.157Z,36.70
2019-02-28T23:57:20.414Z,33.98
2019-02-28T23:59:46.584Z,36.68
